Salem, IL

7:38 AM CDT on September 25, 2017 (GMT -0500)
Salem-Leckrone

Weather History for KSLO - February, 2014

Change the Weather History Date:

Friday, February 21, 2014

  Actual Average Record
Temperature  
Mean Temperature 43 °F -  
Max Temperature 51 °F 49 °F 70 °F (1983)
Min Temperature 35 °F 29 °F 2 °F (1963)
Degree Days  
Heating Degree Days 22    
Moisture  
Dew Point 27 °F    
Average Humidity 54    
Maximum Humidity 74    
Minimum Humidity 37    
Precipitation  
Precipitation 0.00 in - - ()
Sea Level Pressure  
Sea Level Pressure 29.87 in    
Wind  
Wind Speed 16 mph (SW)    
Max Wind Speed 24 mph    
Max Gust Speed 32 mph    
Visibility 10 miles    
Events      
Averages and records for this station are not official NWS values.
T = Trace of Precipitation, MM = Missing Value Source: NWS Daily Summary

Daily Weather History Graph

Daily Weather History Graph

Search for Another Location

Airport or City:

Trip Planner

Search our weather history database for the weather conditions in past years. The results will help you decide how hot, cold, wet, or windy it might be!

Date:

Astronomy

Feb. 21, 2014 Rise Set
Actual Time 6:39 AM CST 5:40 PM CST
Civil Twilight 6:12 AM CST 6:07 PM CST
Nautical Twilight 5:41 AM CST 6:38 PM CST
Astronomical Twilight 5:10 AM CST 7:08 PM CST
Moon No Moon Rise 10:07 AM CST (2/21)
Length of Visible Light 11h 55m
Length of Day
11h 01m
Waning Gibbous, 60% of the Moon is Illuminated
Feb 21
Waning Gibbous
Feb 22
Last Quarter
Mar 1
New
Mar 8
First Quarter
Mar 16
Full

Hourly Weather History & Observations

Time (CST) Temp. Windchill Dew Point Humidity Pressure Visibility Wind Dir Wind Speed Gust Speed Precip Events Conditions
12:15 AM 39.2 °F 31.2 °F 31.1 °F 73% 29.71 in 10.0 mi SW 13.8 mph - N/A   Clear
12:35 AM 39.4 °F 30.4 °F 31.1 °F 72% 29.73 in 10.0 mi SSW 17.3 mph - N/A   Clear
12:55 AM 39.7 °F 31.2 °F 31.1 °F 71% 29.74 in 10.0 mi SSW 16.1 mph 21.9 mph N/A   Clear
1:20 AM 39.4 °F 31.8 °F 31.1 °F 72% 29.75 in 10.0 mi SSW 12.7 mph - N/A   Clear
1:35 AM 39.2 °F 31.6 °F 31.1 °F 73% 29.75 in 10.0 mi SW 12.7 mph 20.7 mph N/A   Clear
1:55 AM 39.2 °F 31.6 °F 31.1 °F 73% 29.75 in 10.0 mi SW 12.7 mph 21.9 mph N/A   Clear
2:15 AM 39.0 °F 30.3 °F 31.1 °F 73% 29.76 in 10.0 mi SW 16.1 mph 21.9 mph N/A   Clear
2:35 AM 39.2 °F 29.6 °F 31.1 °F 73% 29.75 in 10.0 mi SW 19.6 mph 24.2 mph N/A   Clear
2:55 AM 39.4 °F 30.4 °F 31.1 °F 72% 29.75 in 10.0 mi SW 17.3 mph 23.0 mph N/A   Clear
3:15 AM 39.2 °F 29.0 °F 30.4 °F 71% 29.75 in 10.0 mi SW 21.9 mph 31.1 mph N/A   Clear
3:35 AM 39.7 °F 29.2 °F 28.8 °F 65% 29.75 in 10.0 mi WSW 24.2 mph 31.1 mph N/A   Clear
3:55 AM 38.8 °F 29.4 °F 30.2 °F 71% 29.76 in 10.0 mi WSW 18.4 mph 31.1 mph N/A   Clear
4:15 AM 37.9 °F 28.5 °F 30.2 °F 74% 29.77 in 10.0 mi WSW 17.3 mph 20.7 mph N/A   Clear
4:35 AM 37.9 °F 29.6 °F 26.6 °F 64% 29.79 in 10.0 mi West 13.8 mph - N/A   Clear
5:00 AM 37.0 °F 27.7 °F 25.5 °F 63% 29.80 in 10.0 mi West 16.1 mph 23.0 mph N/A   Scattered Clouds
5:15 AM 36.9 °F 27.8 °F 25.5 °F 64% 29.81 in 10.0 mi West 15.0 mph 21.9 mph N/A   Mostly Cloudy
5:35 AM 36.5 °F 26.7 °F 25.9 °F 65% 29.81 in 10.0 mi WSW 17.3 mph 23.0 mph N/A   Scattered Clouds
5:55 AM 35.8 °F 26.9 °F 26.4 °F 69% 29.83 in 10.0 mi WSW 13.8 mph - N/A   Clear
6:15 AM 36.7 °F 27.2 °F 25.2 °F 63% 29.83 in 10.0 mi West 16.1 mph 24.2 mph N/A   Clear
6:35 AM 36.7 °F 26.3 °F 24.6 °F 62% 29.84 in 10.0 mi West 19.6 mph 29.9 mph N/A   Clear
6:55 AM 36.5 °F 25.2 °F 24.1 °F 61% 29.85 in 10.0 mi West 23.0 mph 32.2 mph N/A   Clear
7:15 AM 35.8 °F 26.5 °F 24.6 °F 64% 29.86 in 10.0 mi WSW 15.0 mph 20.7 mph N/A   Clear
7:35 AM 36.1 °F 27.3 °F 25.0 °F 64% 29.86 in 10.0 mi WSW 13.8 mph 20.7 mph N/A   Clear
7:55 AM 36.5 °F 25.7 °F 24.3 °F 61% 29.87 in 10.0 mi West 20.7 mph 27.6 mph N/A   Clear
8:15 AM 36.7 °F 27.6 °F 24.8 °F 62% 29.88 in 10.0 mi West 15.0 mph 25.3 mph N/A   Clear
8:35 AM 37.0 °F 26.7 °F 23.4 °F 58% 29.89 in 10.0 mi West 19.6 mph 29.9 mph N/A   Clear
8:55 AM 37.4 °F 26.4 °F 22.6 °F 55% 29.89 in 10.0 mi West 23.0 mph 29.9 mph N/A   Clear
9:15 AM 37.8 °F 28.0 °F 24.4 °F 59% 29.91 in 10.0 mi West 18.4 mph 24.2 mph N/A   Clear
9:35 AM 37.9 °F 27.3 °F 22.3 °F 53% 29.92 in 10.0 mi West 21.9 mph 31.1 mph N/A   Clear
9:55 AM 38.5 °F 28.1 °F 22.6 °F 53% 29.93 in 10.0 mi WSW 21.9 mph 27.6 mph N/A   Clear
10:15 AM 39.0 °F 28.3 °F 21.0 °F 49% 29.94 in 10.0 mi West 24.2 mph 28.8 mph N/A   Clear
10:35 AM 40.1 °F 30.5 °F 21.2 °F 47% 29.94 in 10.0 mi West 20.7 mph 26.5 mph N/A   Clear
10:55 AM 41.0 °F 31.1 °F 21.6 °F 46% 29.95 in 10.0 mi West 23.0 mph 28.8 mph N/A   Clear
11:15 AM 41.9 °F 33.4 °F 22.3 °F 46% 29.96 in 10.0 mi West 18.4 mph 24.2 mph N/A   Clear
11:35 AM 42.8 °F 34.3 °F 23.0 °F 46% 29.96 in 10.0 mi West 19.6 mph 24.2 mph N/A   Clear
11:55 AM 43.7 °F 36.0 °F 21.6 °F 41% 29.95 in 10.0 mi West 17.3 mph 21.9 mph N/A   Clear
12:15 PM 44.8 °F 37.1 °F 22.5 °F 41% 29.94 in 10.0 mi West 18.4 mph 25.3 mph N/A   Clear
12:35 PM 45.7 °F 38.6 °F 23.2 °F 41% 29.94 in 10.0 mi West 17.3 mph 25.3 mph N/A   Clear
12:55 PM 46.8 °F - 24.1 °F 41% 29.93 in 10.0 mi West 13.8 mph 23.0 mph N/A   Clear
1:15 PM 47.7 °F - 24.4 °F 40% 29.93 in 10.0 mi WSW 17.3 mph 20.7 mph N/A   Clear
1:35 PM 48.2 °F - 24.6 °F 40% 29.92 in 10.0 mi WSW 17.3 mph 20.7 mph N/A   Clear
1:55 PM 48.7 °F - 25.9 °F 41% 29.92 in 10.0 mi SW 15.0 mph 23.0 mph N/A   Clear
2:15 PM 49.5 °F - 25.3 °F 39% 29.92 in 10.0 mi WSW 13.8 mph 19.6 mph N/A   Clear
2:35 PM 50.2 °F - 25.3 °F 38% 29.91 in 10.0 mi SW 17.3 mph 21.9 mph N/A   Clear
3:00 PM 50.9 °F - 26.2 °F 38% 29.91 in 10.0 mi WSW 15.0 mph - N/A   Clear
3:15 PM 51.3 °F - 26.4 °F 38% 29.91 in 10.0 mi SW 18.4 mph - N/A   Clear
3:35 PM 51.1 °F - 25.5 °F 37% 29.91 in 10.0 mi SW 17.3 mph 23.0 mph N/A   Clear
3:55 PM 51.4 °F - 27.0 °F 39% 29.91 in 10.0 mi SW 13.8 mph - N/A   Clear
4:15 PM 51.4 °F - 26.4 °F 38% 29.90 in 10.0 mi SW 18.4 mph 23.0 mph N/A   Clear
4:35 PM 51.4 °F - 26.6 °F 38% 29.91 in 10.0 mi SW 16.1 mph - N/A   Clear
4:55 PM 51.3 °F - 26.1 °F 38% 29.90 in 10.0 mi SSW 10.4 mph - N/A   Clear
5:15 PM 50.0 °F - 27.1 °F 41% 29.90 in 10.0 mi South 9.2 mph - N/A   Clear
5:35 PM 49.1 °F - 26.1 °F 41% 29.90 in 10.0 mi South 6.9 mph - N/A   Clear
5:55 PM 48.4 °F - 24.1 °F 39% 29.89 in 10.0 mi South 6.9 mph - N/A   Clear
6:15 PM 48.0 °F - 24.6 °F 40% 29.89 in 10.0 mi South 6.9 mph - N/A   Clear
6:40 PM 47.7 °F - 24.3 °F 40% 29.90 in 10.0 mi South 9.2 mph - N/A   Clear
6:55 PM 47.3 °F - 24.6 °F 41% 29.90 in 10.0 mi South 11.5 mph - N/A   Clear
7:15 PM 46.8 °F - 25.9 °F 44% 29.90 in 10.0 mi South 11.5 mph 17.3 mph N/A   Clear
7:35 PM 46.2 °F 40.5 °F 26.8 °F 47% 29.90 in 10.0 mi South 12.7 mph 17.3 mph N/A   Clear
7:55 PM 45.7 °F 39.8 °F 27.9 °F 50% 29.90 in 10.0 mi South 12.7 mph - N/A   Clear
8:15 PM 44.8 °F 39.4 °F 28.6 °F 53% 29.91 in 10.0 mi South 10.4 mph - N/A   Scattered Clouds
8:35 PM 44.8 °F 38.7 °F 28.8 °F 53% 29.90 in 10.0 mi South 12.7 mph 18.4 mph N/A   Mostly Cloudy
8:55 PM 44.1 °F 38.1 °F 28.9 °F 55% 29.90 in 10.0 mi South 11.5 mph - N/A   Scattered Clouds
9:15 PM 44.6 °F 37.2 °F 30.0 °F 57% 29.90 in 10.0 mi South 17.3 mph 23.0 mph N/A   Scattered Clouds
9:35 PM 44.4 °F 37.5 °F 30.9 °F 59% 29.90 in 10.0 mi South 15.0 mph 24.2 mph N/A   Scattered Clouds
9:55 PM 44.2 °F 37.6 °F 31.6 °F 61% 29.90 in 10.0 mi South 13.8 mph - N/A   Mostly Cloudy
10:15 PM 45.1 °F 37.9 °F 31.8 °F 60% 29.90 in 10.0 mi SSW 17.3 mph - N/A   Overcast
10:35 PM 46.0 °F 39.3 °F 31.6 °F 57% 29.91 in 10.0 mi SSW 16.1 mph 26.5 mph N/A   Overcast
10:55 PM 46.0 °F 39.0 °F 31.5 °F 57% 29.91 in 10.0 mi SSW 17.3 mph 24.2 mph N/A   Mostly Cloudy
11:15 PM 45.9 °F 40.4 °F 31.3 °F 57% 29.95 in 10.0 mi West 11.5 mph 20.7 mph N/A   Mostly Cloudy
11:35 PM 43.5 °F 39.4 °F 31.8 °F 63% 29.95 in 10.0 mi West 6.9 mph - N/A   Scattered Clouds
11:55 PM 42.1 °F 37.7 °F 31.1 °F 65% 29.96 in 10.0 mi WSW 6.9 mph - N/A   Clear